sensor_id;sensor_type;location;lat;lon;timestamp;P1;durP1;ratioP1;P2;durP2;ratioP2
55346;SDS011;41218;55.700;38.270;2022-07-15T00:03:06;6.63;;;4.50;;
55346;SDS011;41218;55.700;38.270;2022-07-15T00:13:07;7.30;;;3.80;;
55346;SDS011;41218;55.700;38.270;2022-07-15T00:23:08;6.60;;;5.10;;
55346;SDS011;41218;55.700;38.270;2022-07-15T00:33:09;5.13;;;4.00;;
55346;SDS011;41218;55.700;38.270;2022-07-15T00:38:10;7.85;;;4.72;;
55346;SDS011;41218;55.700;38.270;2022-07-15T00:48:12;7.07;;;4.30;;
55346;SDS011;41218;55.700;38.270;2022-07-15T00:58:17;6.75;;;4.60;;
55346;SDS011;41218;55.700;38.270;2022-07-15T01:03:20;7.22;;;4.82;;
55346;SDS011;41218;55.700;38.270;2022-07-15T01:13:21;6.73;;;4.40;;
55346;SDS011;41218;55.700;38.270;2022-07-15T01:18:22;8.02;;;4.55;;
55346;SDS011;41218;55.700;38.270;2022-07-15T01:23:22;5.57;;;4.10;;
55346;SDS011;41218;55.700;38.270;2022-07-15T01:28:23;5.57;;;4.47;;
55346;SDS011;41218;55.700;38.270;2022-07-15T01:33:24;5.72;;;4.60;;
55346;SDS011;41218;55.700;38.270;2022-07-15T01:38:24;5.72;;;4.50;;
55346;SDS011;41218;55.700;38.270;2022-07-15T01:43:26;6.47;;;4.50;;
55346;SDS011;41218;55.700;38.270;2022-07-15T01:59:16;5.10;;;4.40;;
55346;SDS011;41218;55.700;38.270;2022-07-15T02:04:17;7.85;;;4.20;;
55346;SDS011;41218;55.700;38.270;2022-07-15T02:09:19;7.57;;;4.03;;
55346;SDS011;41218;55.700;38.270;2022-07-15T02:14:19;7.63;;;4.70;;
55346;SDS011;41218;55.700;38.270;2022-07-15T02:19:20;9.20;;;4.75;;
55346;SDS011;41218;55.700;38.270;2022-07-15T02:24:20;6.95;;;4.50;;
55346;SDS011;41218;55.700;38.270;2022-07-15T02:29:21;5.30;;;4.80;;
55346;SDS011;41218;55.700;38.270;2022-07-15T02:34:22;9.65;;;3.97;;
55346;SDS011;41218;55.700;38.270;2022-07-15T02:39:22;4.85;;;3.97;;
55346;SDS011;41218;55.700;38.270;2022-07-15T02:49:23;4.80;;;3.85;;
55346;SDS011;41218;55.700;38.270;2022-07-15T02:54:24;5.53;;;3.95;;
55346;SDS011;41218;55.700;38.270;2022-07-15T02:59:24;4.13;;;3.47;;
55346;SDS011;41218;55.700;38.270;2022-07-15T03:04:25;4.47;;;3.70;;
55346;SDS011;41218;55.700;38.270;2022-07-15T03:09:25;3.80;;;3.40;;
55346;SDS011;41218;55.700;38.270;2022-07-15T03:14:26;5.07;;;3.40;;
55346;SDS011;41218;55.700;38.270;2022-07-15T03:24:27;4.03;;;3.30;;
55346;SDS011;41218;55.700;38.270;2022-07-15T03:29:27;3.80;;;2.88;;
55346;SDS011;41218;55.700;38.270;2022-07-15T03:34:29;5.13;;;3.47;;
55346;SDS011;41218;55.700;38.270;2022-07-15T03:44:30;4.47;;;3.30;;
55346;SDS011;41218;55.700;38.270;2022-07-15T03:49:30;3.50;;;3.05;;
55346;SDS011;41218;55.700;38.270;2022-07-15T04:05:21;5.43;;;3.33;;
55346;SDS011;41218;55.700;38.270;2022-07-15T04:15:22;3.53;;;2.53;;
55346;SDS011;41218;55.700;38.270;2022-07-15T04:25:23;5.30;;;2.60;;
55346;SDS011;41218;55.700;38.270;2022-07-15T04:35:25;4.20;;;2.90;;
55346;SDS011;41218;55.700;38.270;2022-07-15T04:40:26;3.65;;;3.10;;
55346;SDS011;41218;55.700;38.270;2022-07-15T04:50:28;4.05;;;3.35;;
55346;SDS011;41218;55.700;38.270;2022-07-15T05:00:57;3.90;;;3.27;;
55346;SDS011;41218;55.700;38.270;2022-07-15T05:10:58;3.53;;;3.17;;
55346;SDS011;41218;55.700;38.270;2022-07-15T05:20:59;3.60;;;3.03;;
55346;SDS011;41218;55.700;38.270;2022-07-15T05:26:00;3.88;;;2.72;;
55346;SDS011;41218;55.700;38.270;2022-07-15T05:31:01;4.05;;;2.92;;
55346;SDS011;41218;55.700;38.270;2022-07-15T05:41:02;3.83;;;2.23;;
55346;SDS011;41218;55.700;38.270;2022-07-15T05:46:05;2.45;;;2.25;;
55346;SDS011;41218;55.700;38.270;2022-07-15T05:51:05;3.15;;;2.38;;
55346;SDS011;41218;55.700;38.270;2022-07-15T05:56:06;2.47;;;2.20;;
55346;SDS011;41218;55.700;38.270;2022-07-15T06:01:07;2.80;;;1.90;;
55346;SDS011;41218;55.700;38.270;2022-07-15T06:06:08;2.08;;;1.80;;
55346;SDS011;41218;55.700;38.270;2022-07-15T06:11:09;2.10;;;1.90;;
55346;SDS011;41218;55.700;38.270;2022-07-15T06:16:11;2.13;;;1.90;;
55346;SDS011;41218;55.700;38.270;2022-07-15T06:21:12;2.00;;;1.70;;
55346;SDS011;41218;55.700;38.270;2022-07-15T06:26:12;1.70;;;1.50;;
55346;SDS011;41218;55.700;38.270;2022-07-15T06:31:13;2.58;;;1.70;;
55346;SDS011;41218;55.700;38.270;2022-07-15T06:36:14;2.90;;;2.05;;
55346;SDS011;41218;55.700;38.270;2022-07-15T06:41:14;4.25;;;2.00;;
55346;SDS011;41218;55.700;38.270;2022-07-15T06:46:15;2.95;;;1.88;;
55346;SDS011;41218;55.700;38.270;2022-07-15T06:51:15;2.25;;;2.03;;
55346;SDS011;41218;55.700;38.270;2022-07-15T06:56:16;2.28;;;2.03;;
55346;SDS011;41218;55.700;38.270;2022-07-15T07:01:17;3.15;;;2.00;;
55346;SDS011;41218;55.700;38.270;2022-07-15T07:06:17;2.05;;;1.90;;
55346;SDS011;41218;55.700;38.270;2022-07-15T07:11:18;3.05;;;2.03;;
55346;SDS011;41218;55.700;38.270;2022-07-15T07:16:19;5.43;;;1.95;;
55346;SDS011;41218;55.700;38.270;2022-07-15T07:21:20;3.33;;;1.90;;
55346;SDS011;41218;55.700;38.270;2022-07-15T07:26:20;1.98;;;1.80;;
55346;SDS011;41218;55.700;38.270;2022-07-15T07:31:21;2.50;;;2.00;;
55346;SDS011;41218;55.700;38.270;2022-07-15T07:36:26;2.50;;;2.15;;
55346;SDS011;41218;55.700;38.270;2022-07-15T07:41:26;2.60;;;2.10;;
55346;SDS011;41218;55.700;38.270;2022-07-15T07:46:28;3.03;;;2.30;;
55346;SDS011;41218;55.700;38.270;2022-07-15T07:51:28;3.30;;;2.10;;
55346;SDS011;41218;55.700;38.270;2022-07-15T07:56:29;2.70;;;2.35;;
55346;SDS011;41218;55.700;38.270;2022-07-15T08:01:29;2.47;;;2.13;;
55346;SDS011;41218;55.700;38.270;2022-07-15T08:11:40;2.78;;;2.40;;
55346;SDS011;41218;55.700;38.270;2022-07-15T08:16:41;5.07;;;2.42;;
55346;SDS011;41218;55.700;38.270;2022-07-15T08:21:43;4.90;;;2.60;;
55346;SDS011;41218;55.700;38.270;2022-07-15T08:26:44;2.90;;;2.70;;
55346;SDS011;41218;55.700;38.270;2022-07-15T08:31:44;5.05;;;2.70;;
55346;SDS011;41218;55.700;38.270;2022-07-15T08:36:46;3.88;;;2.53;;
55346;SDS011;41218;55.700;38.270;2022-07-15T08:41:46;2.70;;;2.50;;
55346;SDS011;41218;55.700;38.270;2022-07-15T08:46:47;4.40;;;2.45;;
55346;SDS011;41218;55.700;38.270;2022-07-15T08:51:48;4.35;;;2.97;;
55346;SDS011;41218;55.700;38.270;2022-07-15T08:56:48;4.15;;;2.17;;
55346;SDS011;41218;55.700;38.270;2022-07-15T09:01:49;3.30;;;2.70;;
55346;SDS011;41218;55.700;38.270;2022-07-15T09:06:50;6.40;;;2.60;;
55346;SDS011;41218;55.700;38.270;2022-07-15T09:22:09;2.92;;;2.67;;
55346;SDS011;41218;55.700;38.270;2022-07-15T09:27:29;5.18;;;2.80;;
55346;SDS011;41218;55.700;38.270;2022-07-15T09:32:31;4.85;;;2.78;;
55346;SDS011;41218;55.700;38.270;2022-07-15T09:37:56;6.50;;;2.65;;
55346;SDS011;41218;55.700;38.270;2022-07-15T09:43:05;2.70;;;2.50;;
55346;SDS011;41218;55.700;38.270;2022-07-15T09:48:07;2.85;;;2.55;;
55346;SDS011;41218;55.700;38.270;2022-07-15T09:53:10;3.05;;;2.50;;
55346;SDS011;41218;55.700;38.270;2022-07-15T09:58:12;3.63;;;2.53;;
55346;SDS011;41218;55.700;38.270;2022-07-15T10:03:13;4.18;;;2.63;;
55346;SDS011;41218;55.700;38.270;2022-07-15T10:08:16;2.72;;;2.53;;
55346;SDS011;41218;55.700;38.270;2022-07-15T10:29:50;2.92;;;2.50;;
55346;SDS011;41218;55.700;38.270;2022-07-15T10:34:51;3.22;;;2.40;;
55346;SDS011;41218;55.700;38.270;2022-07-15T10:39:58;3.05;;;2.60;;
55346;SDS011;41218;55.700;38.270;2022-07-15T10:45:06;2.63;;;2.35;;
55346;SDS011;41218;55.700;38.270;2022-07-15T10:55:39;2.78;;;2.45;;
55346;SDS011;41218;55.700;38.270;2022-07-15T11:00:40;2.60;;;2.35;;
55346;SDS011;41218;55.700;38.270;2022-07-15T11:06:00;2.50;;;2.30;;
55346;SDS011;41218;55.700;38.270;2022-07-15T11:16:18;2.83;;;2.10;;
55346;SDS011;41218;55.700;38.270;2022-07-15T11:21:21;2.30;;;2.10;;
55346;SDS011;41218;55.700;38.270;2022-07-15T11:26:22;3.03;;;2.17;;
55346;SDS011;41218;55.700;38.270;2022-07-15T11:31:23;2.70;;;2.20;;
55346;SDS011;41218;55.700;38.270;2022-07-15T11:36:24;2.28;;;2.08;;
55346;SDS011;41218;55.700;38.270;2022-07-15T11:41:24;2.47;;;1.70;;
55346;SDS011;41218;55.700;38.270;2022-07-15T11:46:44;2.70;;;2.10;;
55346;SDS011;41218;55.700;38.270;2022-07-15T11:51:46;3.22;;;2.00;;
55346;SDS011;41218;55.700;38.270;2022-07-15T11:56:53;2.75;;;1.80;;
55346;SDS011;41218;55.700;38.270;2022-07-15T12:07:08;3.17;;;2.13;;
55346;SDS011;41218;55.700;38.270;2022-07-15T12:12:09;2.85;;;1.70;;
55346;SDS011;41218;55.700;38.270;2022-07-15T12:17:10;4.22;;;1.70;;
55346;SDS011;41218;55.700;38.270;2022-07-15T12:22:11;2.85;;;1.80;;
55346;SDS011;41218;55.700;38.270;2022-07-15T12:27:12;2.80;;;1.42;;
55346;SDS011;41218;55.700;38.270;2022-07-15T12:32:14;2.35;;;1.80;;
55346;SDS011;41218;55.700;38.270;2022-07-15T12:42:18;3.00;;;2.05;;
55346;SDS011;41218;55.700;38.270;2022-07-15T12:47:18;3.83;;;2.40;;
55346;SDS011;41218;55.700;38.270;2022-07-15T12:57:27;2.75;;;1.98;;
55346;SDS011;41218;55.700;38.270;2022-07-15T13:02:46;2.85;;;1.77;;
55346;SDS011;41218;55.700;38.270;2022-07-15T13:08:18;4.22;;;1.85;;
55346;SDS011;41218;55.700;38.270;2022-07-15T13:13:21;2.97;;;2.00;;
55346;SDS011;41218;55.700;38.270;2022-07-15T13:18:23;3.00;;;2.22;;
55346;SDS011;41218;55.700;38.270;2022-07-15T13:23:25;5.53;;;2.33;;
55346;SDS011;41218;55.700;38.270;2022-07-15T13:28:26;4.22;;;2.15;;
55346;SDS011;41218;55.700;38.270;2022-07-15T13:33:27;2.30;;;2.10;;
55346;SDS011;41218;55.700;38.270;2022-07-15T13:38:27;3.40;;;2.38;;
55346;SDS011;41218;55.700;38.270;2022-07-15T13:43:28;4.53;;;2.08;;
55346;SDS011;41218;55.700;38.270;2022-07-15T13:48:28;2.15;;;1.95;;
55346;SDS011;41218;55.700;38.270;2022-07-15T13:53:29;3.22;;;2.13;;
55346;SDS011;41218;55.700;38.270;2022-07-15T13:58:29;3.25;;;2.17;;
55346;SDS011;41218;55.700;38.270;2022-07-15T14:03:31;2.10;;;1.90;;
55346;SDS011;41218;55.700;38.270;2022-07-15T14:08:32;4.50;;;2.00;;
55346;SDS011;41218;55.700;38.270;2022-07-15T14:13:33;3.47;;;2.05;;
55346;SDS011;41218;55.700;38.270;2022-07-15T14:34:20;3.35;;;1.67;;
55346;SDS011;41218;55.700;38.270;2022-07-15T14:39:20;2.80;;;1.67;;
55346;SDS011;41218;55.700;38.270;2022-07-15T14:44:21;4.05;;;1.92;;
55346;SDS011;41218;55.700;38.270;2022-07-15T14:49:21;6.50;;;1.55;;
55346;SDS011;41218;55.700;38.270;2022-07-15T14:54:24;3.67;;;1.63;;
55346;SDS011;41218;55.700;38.270;2022-07-15T14:59:24;4.50;;;1.55;;
55346;SDS011;41218;55.700;38.270;2022-07-15T15:04:25;1.90;;;1.55;;
55346;SDS011;41218;55.700;38.270;2022-07-15T15:09:28;2.80;;;1.70;;
55346;SDS011;41218;55.700;38.270;2022-07-15T15:14:28;3.10;;;1.63;;
55346;SDS011;41218;55.700;38.270;2022-07-15T15:19:29;3.83;;;1.67;;
55346;SDS011;41218;55.700;38.270;2022-07-15T15:24:31;4.10;;;1.45;;
55346;SDS011;41218;55.700;38.270;2022-07-15T15:29:32;2.42;;;1.63;;
55346;SDS011;41218;55.700;38.270;2022-07-15T15:34:33;1.85;;;1.42;;
55346;SDS011;41218;55.700;38.270;2022-07-15T15:39:33;1.75;;;1.40;;
55346;SDS011;41218;55.700;38.270;2022-07-15T15:44:34;3.63;;;1.50;;
55346;SDS011;41218;55.700;38.270;2022-07-15T15:49:35;6.93;;;1.70;;
55346;SDS011;41218;55.700;38.270;2022-07-15T15:54:36;2.90;;;1.52;;
55346;SDS011;41218;55.700;38.270;2022-07-15T15:59:36;2.90;;;1.60;;
55346;SDS011;41218;55.700;38.270;2022-07-15T16:04:37;4.25;;;1.50;;
55346;SDS011;41218;55.700;38.270;2022-07-15T16:09:37;2.25;;;1.33;;
55346;SDS011;41218;55.700;38.270;2022-07-15T16:14:38;3.25;;;1.10;;
55346;SDS011;41218;55.700;38.270;2022-07-15T16:19:39;1.52;;;1.10;;
55346;SDS011;41218;55.700;38.270;2022-07-15T16:24:40;3.83;;;1.10;;
55346;SDS011;41218;55.700;38.270;2022-07-15T16:29:41;1.42;;;1.10;;
55346;SDS011;41218;55.700;38.270;2022-07-15T16:34:41;2.55;;;1.08;;
55346;SDS011;41218;55.700;38.270;2022-07-15T16:39:42;1.63;;;1.00;;
55346;SDS011;41218;55.700;38.270;2022-07-15T16:44:42;1.08;;;0.98;;
55346;SDS011;41218;55.700;38.270;2022-07-15T16:49:43;1.85;;;1.10;;
55346;SDS011;41218;55.700;38.270;2022-07-15T16:54:44;4.78;;;1.30;;
55346;SDS011;41218;55.700;38.270;2022-07-15T16:59:44;2.65;;;1.20;;
55346;SDS011;41218;55.700;38.270;2022-07-15T17:04:45;7.35;;;1.35;;
55346;SDS011;41218;55.700;38.270;2022-07-15T17:09:46;3.38;;;1.40;;
55346;SDS011;41218;55.700;38.270;2022-07-15T17:14:46;2.85;;;1.33;;
55346;SDS011;41218;55.700;38.270;2022-07-15T17:19:52;1.85;;;1.05;;
55346;SDS011;41218;55.700;38.270;2022-07-15T17:24:52;2.83;;;1.40;;
55346;SDS011;41218;55.700;38.270;2022-07-15T17:29:53;4.85;;;1.58;;
55346;SDS011;41218;55.700;38.270;2022-07-15T17:34:53;4.45;;;2.22;;
55346;SDS011;41218;55.700;38.270;2022-07-15T17:39:54;11.00;;;3.33;;
55346;SDS011;41218;55.700;38.270;2022-07-15T17:44:55;10.15;;;3.08;;
55346;SDS011;41218;55.700;38.270;2022-07-15T17:49:55;6.05;;;2.58;;
55346;SDS011;41218;55.700;38.270;2022-07-15T17:54:56;6.20;;;2.47;;
55346;SDS011;41218;55.700;38.270;2022-07-15T17:59:56;5.90;;;1.80;;
55346;SDS011;41218;55.700;38.270;2022-07-15T18:04:57;5.30;;;1.88;;
55346;SDS011;41218;55.700;38.270;2022-07-15T18:09:58;4.25;;;1.70;;
55346;SDS011;41218;55.700;38.270;2022-07-15T18:14:58;3.30;;;1.83;;
55346;SDS011;41218;55.700;38.270;2022-07-15T18:20:00;2.42;;;1.77;;
55346;SDS011;41218;55.700;38.270;2022-07-15T18:25:00;1.98;;;1.55;;
55346;SDS011;41218;55.700;38.270;2022-07-15T18:30:01;2.90;;;1.80;;
55346;SDS011;41218;55.700;38.270;2022-07-15T18:35:03;3.22;;;1.90;;
55346;SDS011;41218;55.700;38.270;2022-07-15T18:40:05;5.75;;;2.20;;
55346;SDS011;41218;55.700;38.270;2022-07-15T18:45:09;2.63;;;2.00;;
55346;SDS011;41218;55.700;38.270;2022-07-15T18:50:10;7.05;;;2.20;;
55346;SDS011;41218;55.700;38.270;2022-07-15T18:55:11;3.38;;;1.92;;
55346;SDS011;41218;55.700;38.270;2022-07-15T19:00:11;4.90;;;2.03;;
55346;SDS011;41218;55.700;38.270;2022-07-15T19:05:12;2.33;;;1.73;;
55346;SDS011;41218;55.700;38.270;2022-07-15T19:10:13;4.28;;;2.00;;
55346;SDS011;41218;55.700;38.270;2022-07-15T19:15:14;3.50;;;2.17;;
55346;SDS011;41218;55.700;38.270;2022-07-15T19:20:15;3.65;;;2.13;;
55346;SDS011;41218;55.700;38.270;2022-07-15T19:25:16;4.90;;;2.30;;
55346;SDS011;41218;55.700;38.270;2022-07-15T19:30:18;3.55;;;2.03;;
55346;SDS011;41218;55.700;38.270;2022-07-15T19:35:19;6.43;;;2.33;;
55346;SDS011;41218;55.700;38.270;2022-07-15T19:40:19;3.40;;;2.05;;
55346;SDS011;41218;55.700;38.270;2022-07-15T19:45:21;4.43;;;2.20;;
55346;SDS011;41218;55.700;38.270;2022-07-15T19:55:22;3.35;;;2.10;;
55346;SDS011;41218;55.700;38.270;2022-07-15T20:05:27;3.78;;;2.10;;
55346;SDS011;41218;55.700;38.270;2022-07-15T20:10:28;3.25;;;2.15;;
55346;SDS011;41218;55.700;38.270;2022-07-15T20:20:30;3.87;;;2.20;;
55346;SDS011;41218;55.700;38.270;2022-07-15T20:30:31;4.63;;;2.40;;
55346;SDS011;41218;55.700;38.270;2022-07-15T20:40:55;4.75;;;2.53;;
55346;SDS011;41218;55.700;38.270;2022-07-15T20:45:56;5.90;;;2.47;;
55346;SDS011;41218;55.700;38.270;2022-07-15T20:55:57;8.87;;;2.87;;
55346;SDS011;41218;55.700;38.270;2022-07-15T21:00:58;5.63;;;2.97;;
55346;SDS011;41218;55.700;38.270;2022-07-15T21:05:59;6.03;;;2.90;;
55346;SDS011;41218;55.700;38.270;2022-07-15T21:10:59;7.65;;;2.80;;
55346;SDS011;41218;55.700;38.270;2022-07-15T21:21:01;10.30;;;2.78;;
55346;SDS011;41218;55.700;38.270;2022-07-15T21:26:02;4.65;;;2.83;;
55346;SDS011;41218;55.700;38.270;2022-07-15T21:31:21;4.32;;;2.90;;
55346;SDS011;41218;55.700;38.270;2022-07-15T21:36:22;5.93;;;3.00;;
55346;SDS011;41218;55.700;38.270;2022-07-15T21:41:22;8.15;;;2.75;;
55346;SDS011;41218;55.700;38.270;2022-07-15T21:46:23;4.75;;;3.10;;
55346;SDS011;41218;55.700;38.270;2022-07-15T21:51:23;5.72;;;3.13;;
55346;SDS011;41218;55.700;38.270;2022-07-15T21:56:24;5.03;;;3.10;;
55346;SDS011;41218;55.700;38.270;2022-07-15T22:01:24;6.93;;;3.30;;
55346;SDS011;41218;55.700;38.270;2022-07-15T22:06:25;8.55;;;3.20;;
55346;SDS011;41218;55.700;38.270;2022-07-15T22:11:26;7.43;;;3.25;;
55346;SDS011;41218;55.700;38.270;2022-07-15T22:16:28;4.88;;;3.03;;
55346;SDS011;41218;55.700;38.270;2022-07-15T22:21:29;5.15;;;3.20;;
55346;SDS011;41218;55.700;38.270;2022-07-15T22:26:29;8.15;;;3.60;;
55346;SDS011;41218;55.700;38.270;2022-07-15T22:31:30;6.30;;;3.05;;
55346;SDS011;41218;55.700;38.270;2022-07-15T22:47:08;8.43;;;3.15;;
55346;SDS011;41218;55.700;38.270;2022-07-15T22:52:09;7.75;;;3.30;;
55346;SDS011;41218;55.700;38.270;2022-07-15T22:57:10;8.07;;;3.38;;
55346;SDS011;41218;55.700;38.270;2022-07-15T23:02:10;5.85;;;3.50;;
55346;SDS011;41218;55.700;38.270;2022-07-15T23:07:11;5.88;;;3.45;;
55346;SDS011;41218;55.700;38.270;2022-07-15T23:12:12;6.25;;;3.50;;
55346;SDS011;41218;55.700;38.270;2022-07-15T23:17:13;4.97;;;3.23;;
55346;SDS011;41218;55.700;38.270;2022-07-15T23:22:14;5.82;;;3.53;;
55346;SDS011;41218;55.700;38.270;2022-07-15T23:27:16;5.32;;;3.55;;
55346;SDS011;41218;55.700;38.270;2022-07-15T23:32:17;7.03;;;3.67;;
55346;SDS011;41218;55.700;38.270;2022-07-15T23:37:17;8.30;;;4.20;;
55346;SDS011;41218;55.700;38.270;2022-07-15T23:42:19;6.35;;;3.60;;
55346;SDS011;41218;55.700;38.270;2022-07-15T23:47:19;9.18;;;4.38;;
55346;SDS011;41218;55.700;38.270;2022-07-15T23:52:20;8.30;;;4.40;;
55346;SDS011;41218;55.700;38.270;2022-07-15T23:57:20;7.93;;;4.20;;
